This is the latest recevied weather packets stored in our database for station/object HK6RM-18. If no packets are shown the sender has not sent any weather packets the latest 10 day(s).
| Time | Temp. | Humidity | Pressure | Rain* | Wind** | Luminosity | Snow |
|---|---|---|---|---|---|---|---|
| 1777921683 | 21.67° C | 78% | 1011 hPa | 0 mm | - | - | - |
| 1777920782 | 21.67° C | 78% | 1011 hPa | 0 mm | - | - | - |
| 1777919882 | 21.67° C | 78% | 1011 hPa | 0 mm | - | - | - |
| 1777918979 | 21.67° C | 78% | 1012 hPa | 0 mm | - | - | - |
| 1777918078 | 21.67° C | 79% | 1012 hPa | 0 mm | - | - | - |
| 1777917177 | 22.22° C | 78% | 1012 hPa | 0 mm | - | - | - |
| 1777916276 | 21.67° C | 81% | 1013 hPa | 0 mm | - | - | - |
| 1777915376 | 21.67° C | 82% | 1014 hPa | 0 mm | - | - | - |
| 1777914474 | 21.11° C | 84% | 1014 hPa | 0 mm | - | - | - |
| 1777913574 | 22.22° C | 84% | 1014 hPa | 0 mm | - | - | - |
| 1777912671 | 21.11° C | 83% | 1014 hPa | 0 mm | - | - | - |
| 1777911765 | 21.67° C | 84% | 1015 hPa | 0 mm | - | - | - |
| 1777910864 | 21.11° C | 84% | 1015 hPa | 0 mm | - | - | - |
| 1777909963 | 21.67° C | 84% | 1015 hPa | 0 mm | - | - | - |
| 1777909060 | 20.56° C | 87% | 1015 hPa | 0 mm | - | - | - |
| 1777908159 | 21.67° C | 85% | 1015 hPa | 0 mm | - | - | - |
| 1777907256 | 20.56° C | 90% | 1015 hPa | 0 mm | - | - | - |
| 1777906356 | 20.56° C | 92% | 1015 hPa | 0 mm | - | - | - |
| 1777905455 | 20.56° C | 95% | 1015 hPa | 0 mm | - | - | - |
| 1777904554 | 19.44° C | 10% | - | 0 mm | - | - | - |
| 1777903654 | 20° C | 10% | - | 0 mm | - | - | - |
| 1777902753 | 20.56° C | 10% | - | 0 mm | - | - | - |
| 1777901852 | 17.78° C | 98% | 1016 hPa | 0 mm | - | - | - |
| 1777900951 | 17.22° C | 10% | - | 0 mm | - | - | - |
| 1777900049 | 17.78° C | 10% | - | 0 mm | - | - | - |
* Rain latest hour (hover to see other rain measurements)
** Current wind speed in m/s (hover to see current wind gust speed)